KAMW/AMW METAR and TAF weather

Enter ICAO airport designator
Station Type Date Time Source
KAMW METAR 2022/08/16 18:53 UTC NOAA

KAMW 161853Z AUTO VRB04KT 10SM BKN037 BKN045 BKN055 26/17 A3012 RMK AO2 SLP190 T02560167


Station Type Date Time Source
KAMW Decoded METAR 2022/08/16 18:53 UTC NOAA

AMES MUNICIPAL AIRPORT, IA, United States (KAMW) 41-59N 93-37W 279M
Aug 16, 2022 - 02:53 PM EDT / 2022.08.16 1853 UTC
Wind: Variable at 5 MPH (4 KT):0
Visibility: 10 mile(s):0
Sky conditions: mostly cloudy
Temperature: 78.1 F (25.6 C)
Dew Point: 62.1 F (16.7 C)
Relative Humidity: 57%
Pressure (altimeter): 30.12 in. Hg (1019 hPa)
ob: KAMW 161853Z AUTO VRB04KT 10SM BKN037 BKN045 BKN055 26/17 A3012 RMK AO2 SLP190 T02560167
cycle: 19

Station Type Date Time Source
KAMW TAF UTC NOAA

Error!

Example: see airport list